createdAt,value
2023-02-05T00:01:14.945Z,101267.94
2023-02-05T00:05:18.422Z,101259.75
2023-02-05T00:09:21.864Z,101260.06
2023-02-05T00:13:26.207Z,101250.88
2023-02-05T00:17:42.919Z,101258.03
2023-02-05T00:21:47.009Z,101253.44
2023-02-05T00:25:50.192Z,101243.41
2023-02-05T00:29:55.057Z,101250.94
2023-02-05T00:33:59.699Z,101269.22
2023-02-05T00:38:03.375Z,101265.16
2023-02-05T00:42:06.942Z,101251.97
2023-02-05T00:46:12.834Z,101247.22
2023-02-05T00:50:17.222Z,101235.56
2023-02-05T00:54:21.004Z,101245.88
2023-02-05T00:58:23.822Z,101226.16
2023-02-05T01:02:28.869Z,101237.19
2023-02-05T01:06:32.478Z,101228.97
2023-02-05T01:10:36.213Z,101220.19
2023-02-05T01:14:39.434Z,101201.00
2023-02-05T01:18:44.524Z,101219.31
2023-02-05T01:22:48.078Z,101213.75
2023-02-05T01:26:53.721Z,101210.38
2023-02-05T01:30:57.330Z,101206.94
2023-02-05T01:35:02.264Z,101210.53
2023-02-05T01:39:05.668Z,101207.25
2023-02-05T01:43:13.582Z,101214.16
2023-02-05T01:47:17.063Z,101212.63
2023-02-05T01:51:22.822Z,101199.06
2023-02-05T01:55:26.354Z,101185.31
2023-02-05T01:59:31.820Z,101186.78
2023-02-05T02:03:34.788Z,101191.50
2023-02-05T02:07:40.294Z,101182.81
2023-02-05T02:11:44.300Z,101188.53
2023-02-05T02:15:49.792Z,101192.63
2023-02-05T02:19:57.745Z,101193.88
2023-02-05T02:24:43.467Z,101177.41
2023-02-05T02:28:51.845Z,101177.69
2023-02-05T02:33:04.280Z,101160.41
2023-02-05T02:37:09.562Z,101133.53
2023-02-05T02:41:15.222Z,101143.19
2023-02-05T02:45:21.356Z,101156.56
2023-02-05T02:49:31.239Z,101160.97
2023-02-05T02:53:37.681Z,101138.41
2023-02-05T02:57:43.202Z,101131.88
2023-02-05T03:01:53.613Z,101148.75
2023-02-05T03:05:58.184Z,101139.22
2023-02-05T03:10:04.860Z,101137.28
2023-02-05T03:14:08.339Z,101143.03
2023-02-05T03:18:14.064Z,101134.47
2023-02-05T03:22:21.099Z,101137.94
2023-02-05T03:26:27.612Z,101129.13
2023-02-05T03:30:47.375Z,101128.63
2023-02-05T03:35:04.449Z,101133.19
2023-02-05T03:39:22.404Z,101089.75
2023-02-05T03:43:35.051Z,101131.03
2023-02-05T03:47:50.154Z,101134.19
2023-02-05T03:52:01.045Z,101145.13
2023-02-05T03:56:07.763Z,101136.63
2023-02-05T04:00:16.127Z,101154.16
2023-02-05T04:04:23.415Z,101160.88
2023-02-05T04:08:31.168Z,101162.50
2023-02-05T04:12:35.329Z,101160.56
2023-02-05T04:16:39.020Z,101150.22
2023-02-05T04:20:47.337Z,101163.19
2023-02-05T04:24:53.963Z,101171.03
2023-02-05T04:29:01.459Z,101173.31
2023-02-05T04:33:05.752Z,101156.28
2023-02-05T04:37:08.896Z,101140.56
2023-02-05T04:41:13.913Z,101123.03
2023-02-05T04:45:18.946Z,101129.28
2023-02-05T04:49:23.602Z,101130.41
2023-02-05T04:53:29.387Z,101129.28
2023-02-05T04:57:37.152Z,101129.75
2023-02-05T05:01:51.854Z,101133.03
2023-02-05T05:05:56.125Z,101134.63
2023-02-05T05:10:09.086Z,101146.94
2023-02-05T05:14:24.145Z,101148.41
2023-02-05T05:18:29.132Z,101146.97
2023-02-05T05:22:33.901Z,101145.00
2023-02-05T05:26:44.742Z,101144.63
2023-02-05T05:30:53.644Z,101154.78
2023-02-05T05:34:59.611Z,101160.69
2023-02-05T05:39:38.083Z,101160.53
2023-02-05T05:44:03.788Z,101154.75
2023-02-05T05:48:09.696Z,101156.22
2023-02-05T05:52:16.450Z,101165.91
2023-02-05T05:56:21.546Z,101154.75
2023-02-05T06:00:38.170Z,101153.91
2023-02-05T06:04:43.814Z,101139.22
2023-02-05T06:08:50.883Z,101144.59
2023-02-05T06:12:55.524Z,101139.09
2023-02-05T06:17:01.040Z,101142.00
2023-02-05T06:21:06.783Z,101158.25
2023-02-05T06:25:10.945Z,101143.81
2023-02-05T06:29:14.126Z,101145.25
2023-02-05T06:33:17.205Z,101146.75
2023-02-05T06:37:34.189Z,101127.78
2023-02-05T06:41:48.758Z,101135.50
2023-02-05T06:45:52.101Z,101144.66
2023-02-05T06:49:55.806Z,101161.53
2023-02-05T06:54:01.852Z,101159.06
2023-02-05T06:58:06.150Z,101156.94
2023-02-05T07:02:16.327Z,101132.69
2023-02-05T07:06:20.525Z,101143.50
2023-02-05T07:10:25.485Z,101142.34
2023-02-05T07:14:31.997Z,101126.63
2023-02-05T07:18:39.676Z,101134.78
2023-02-05T07:22:44.588Z,101133.16
2023-02-05T07:26:53.876Z,101140.53
2023-02-05T07:31:00.207Z,101143.69
2023-02-05T07:35:04.765Z,101137.28
2023-02-05T07:39:11.276Z,101138.75
2023-02-05T07:43:24.992Z,101143.03
2023-02-05T07:47:31.556Z,101120.41
2023-02-05T07:51:35.994Z,101120.75
2023-02-05T07:55:49.774Z,101133.53
2023-02-05T07:59:58.506Z,101136.78
2023-02-05T08:04:05.322Z,101136.47
2023-02-05T08:08:11.265Z,101143.19
2023-02-05T08:12:15.356Z,101125.03
2023-02-05T08:16:26.925Z,101127.00
2023-02-05T08:20:31.889Z,101123.22
2023-02-05T08:24:39.370Z,101134.69
2023-02-05T08:28:44.508Z,101131.41
2023-02-05T08:32:54.364Z,101128.94
2023-02-05T08:37:01.466Z,101139.25
2023-02-05T08:41:16.706Z,101144.03
2023-02-05T08:45:23.973Z,101141.56
2023-02-05T08:49:37.470Z,101133.22
2023-02-05T08:53:45.528Z,101131.72
2023-02-05T08:57:53.247Z,101130.34
2023-02-05T09:01:57.984Z,101124.09
2023-02-05T09:06:13.522Z,101112.28
2023-02-05T09:10:19.810Z,101104.53
2023-02-05T09:14:23.725Z,101108.97
2023-02-05T09:18:30.217Z,101111.84
2023-02-05T09:22:35.156Z,101088.66
2023-02-05T09:26:39.029Z,101100.53
2023-02-05T09:30:47.676Z,101105.75
2023-02-05T09:34:51.988Z,101103.06
2023-02-05T09:39:13.047Z,101101.63
2023-02-05T09:43:40.080Z,101099.00
2023-02-05T09:47:46.351Z,101087.69
2023-02-05T09:51:52.734Z,101095.91
2023-02-05T09:56:00.216Z,101094.44
2023-02-05T10:00:05.039Z,101084.41
2023-02-05T10:04:09.364Z,101082.94
2023-02-05T10:08:21.262Z,101085.81
2023-02-05T10:12:38.651Z,101078.13
2023-02-05T10:16:56.014Z,101080.06
2023-02-05T10:21:04.541Z,101074.66
2023-02-05T10:25:38.197Z,101074.41
2023-02-05T10:29:50.084Z,101062.56
2023-02-05T10:33:56.465Z,101056.81
2023-02-05T10:38:04.793Z,101053.63
2023-02-05T10:42:29.813Z,101046.41
2023-02-05T10:46:41.174Z,101045.59
2023-02-05T10:50:57.716Z,101034.16
2023-02-05T10:55:02.085Z,101054.72
2023-02-05T10:59:08.549Z,101045.84
2023-02-05T11:03:20.038Z,101029.25
2023-02-05T11:07:28.286Z,101034.00
2023-02-05T11:11:38.304Z,101025.97
2023-02-05T11:15:55.167Z,101039.84
2023-02-05T11:20:03.106Z,101042.22
2023-02-05T11:24:10.571Z,101019.38
2023-02-05T11:28:24.066Z,101013.63
2023-02-05T11:32:41.264Z,101005.63
2023-02-05T11:36:53.538Z,100988.63
2023-02-05T11:40:59.306Z,100961.34
2023-02-05T11:45:11.493Z,100972.47
2023-02-05T11:49:23.065Z,100971.72
2023-02-05T11:53:34.836Z,100971.50
2023-02-05T11:57:45.122Z,100959.38
2023-02-05T12:01:53.876Z,100959.16
2023-02-05T12:06:07.135Z,100965.19
2023-02-05T12:10:29.556Z,100944.59
2023-02-05T12:14:46.075Z,100948.31
2023-02-05T12:19:04.375Z,100971.06
2023-02-05T12:23:37.857Z,100983.81
2023-02-05T12:28:08.512Z,100959.22
2023-02-05T12:32:17.508Z,100957.16
2023-02-05T12:36:36.183Z,100959.94
2023-02-05T12:40:54.507Z,100959.16
2023-02-05T12:45:13.015Z,100947.50
2023-02-05T12:49:26.208Z,100954.59
2023-02-05T12:53:48.811Z,100964.69
2023-02-05T12:57:58.914Z,100962.97
2023-02-05T13:02:12.820Z,100963.22
2023-02-05T13:06:21.797Z,100966.25
2023-02-05T13:10:35.823Z,100963.50
2023-02-05T13:14:47.536Z,100977.47
2023-02-05T13:19:02.922Z,100968.88
2023-02-05T13:23:24.372Z,100996.94
2023-02-05T13:27:48.094Z,100987.28
2023-02-05T13:31:55.972Z,100990.75
2023-02-05T13:36:35.237Z,100987.16
2023-02-05T13:41:03.411Z,100995.41
2023-02-05T13:45:29.246Z,100990.59
2023-02-05T13:50:02.081Z,100987.78
2023-02-05T13:54:38.932Z,100979.44
2023-02-05T13:58:52.993Z,100970.72
2023-02-05T14:02:59.674Z,100956.44
2023-02-05T14:07:06.119Z,100960.84
2023-02-05T14:11:22.123Z,100962.69
2023-02-05T14:15:41.119Z,100954.78
2023-02-05T14:20:02.257Z,100971.47
2023-02-05T14:24:28.949Z,100964.41
2023-02-05T14:28:38.000Z,100971.81
2023-02-05T14:33:02.507Z,100965.75
2023-02-05T14:37:09.061Z,100958.63
2023-02-05T14:41:19.878Z,100981.63
2023-02-05T14:45:29.046Z,100983.59
2023-02-05T14:49:41.842Z,100976.53
2023-02-05T14:54:00.311Z,100989.03
2023-02-05T14:58:11.602Z,100988.84
2023-02-05T15:02:49.761Z,100999.22
2023-02-05T15:06:56.862Z,101007.34
2023-02-05T15:11:20.607Z,101007.84
2023-02-05T15:15:40.389Z,101013.72
2023-02-05T15:19:50.915Z,101002.94
2023-02-05T15:24:13.246Z,101006.72
2023-02-05T15:28:35.050Z,101008.66
2023-02-05T15:32:47.801Z,101009.88
2023-02-05T15:37:06.892Z,101012.56
2023-02-05T15:41:19.030Z,101007.06
2023-02-05T15:45:30.818Z,100998.72
2023-02-05T15:49:41.934Z,101005.78
2023-02-05T15:53:49.400Z,100996.94
2023-02-05T15:58:07.263Z,101003.66
2023-02-05T16:02:27.214Z,101010.03
2023-02-05T16:06:32.301Z,101007.38
2023-02-05T16:10:37.228Z,101005.78
2023-02-05T16:14:46.593Z,101006.28
2023-02-05T16:19:00.792Z,101018.91
2023-02-05T16:23:12.940Z,101027.13
2023-02-05T16:27:38.607Z,101029.28
2023-02-05T16:31:45.288Z,101039.47
2023-02-05T16:36:04.082Z,101040.47
2023-02-05T16:40:09.979Z,101056.88
2023-02-05T16:44:30.136Z,101062.97
2023-02-05T16:48:37.805Z,101061.78
2023-02-05T16:52:45.374Z,101056.75
2023-02-05T16:56:55.405Z,101069.69
2023-02-05T17:01:00.148Z,101072.34
2023-02-05T17:05:09.334Z,101080.88
2023-02-05T17:09:34.752Z,101070.25
2023-02-05T17:14:12.342Z,101098.75
2023-02-05T17:18:28.844Z,101107.97
2023-02-05T17:22:45.077Z,101114.53
2023-02-05T17:26:48.908Z,101114.00
2023-02-05T17:30:53.166Z,101115.50
2023-02-05T17:35:00.880Z,101127.47
2023-02-05T17:39:05.963Z,101138.28
2023-02-05T17:43:09.843Z,101136.16
2023-02-05T17:47:13.896Z,101137.81
2023-02-05T17:51:26.480Z,101128.44
2023-02-05T17:55:32.001Z,101131.41
2023-02-05T17:59:35.650Z,101136.16
2023-02-05T18:03:44.901Z,101132.72
2023-02-05T18:07:53.287Z,101144.34
2023-02-05T18:12:01.968Z,101154.34
2023-02-05T18:16:06.619Z,101162.06
2023-02-05T18:20:11.889Z,101159.59
2023-02-05T18:24:18.363Z,101159.59
2023-02-05T18:28:24.564Z,101167.28
2023-02-05T18:32:37.231Z,101168.28
2023-02-05T18:36:40.070Z,101176.47
2023-02-05T18:40:44.827Z,101172.06
2023-02-05T18:44:58.510Z,101201.19
2023-02-05T18:49:01.951Z,101194.81
2023-02-05T18:53:06.532Z,101210.38
2023-02-05T18:57:12.633Z,101199.72
2023-02-05T19:01:20.085Z,101220.56
2023-02-05T19:05:23.614Z,101206.59
2023-02-05T19:09:29.223Z,101225.78
2023-02-05T19:13:32.928Z,101219.69
2023-02-05T19:17:41.380Z,101218.41
2023-02-05T19:21:46.977Z,101215.25
2023-02-05T19:25:53.953Z,101206.25
2023-02-05T19:30:02.309Z,101217.84
2023-02-05T19:34:07.974Z,101215.25
2023-02-05T19:38:11.936Z,101230.34
2023-02-05T19:42:35.863Z,101228.69
2023-02-05T19:46:45.250Z,101237.25
2023-02-05T19:50:50.415Z,101238.91
2023-02-05T19:54:55.405Z,101238.09
2023-02-05T19:59:17.358Z,101239.06
2023-02-05T20:03:23.977Z,101239.91
2023-02-05T20:07:41.694Z,101261.84
2023-02-05T20:11:49.277Z,101253.00
2023-02-05T20:15:54.738Z,101232.31
2023-02-05T20:20:13.936Z,101266.63
2023-02-05T20:24:24.516Z,101277.44
2023-02-05T20:28:32.788Z,101266.13
2023-02-05T20:32:49.317Z,101270.06
2023-02-05T20:37:04.519Z,101266.22
2023-02-05T20:41:21.097Z,101275.09
2023-02-05T20:45:26.808Z,101267.22
2023-02-05T20:49:33.908Z,101269.34
2023-02-05T20:53:39.026Z,101273.44
2023-02-05T20:58:08.885Z,101278.88
2023-02-05T21:02:14.710Z,101281.84
2023-02-05T21:06:22.229Z,101283.31
2023-02-05T21:10:27.009Z,101286.56
2023-02-05T21:14:46.856Z,101285.91
2023-02-05T21:18:52.394Z,101296.88
2023-02-05T21:22:58.338Z,101302.75
2023-02-05T21:27:07.888Z,101296.31
2023-02-05T21:31:26.293Z,101301.31
2023-02-05T21:35:36.775Z,101304.09
2023-02-05T21:39:41.302Z,101314.91
2023-02-05T21:43:50.801Z,101314.78
2023-02-05T21:48:06.121Z,101316.53
2023-02-05T21:52:13.694Z,101316.78
2023-02-05T21:56:20.663Z,101323.41
2023-02-05T22:00:31.128Z,101321.94
2023-02-05T22:04:47.436Z,101338.50
2023-02-05T22:09:04.420Z,101333.84
2023-02-05T22:13:26.396Z,101331.25
2023-02-05T22:17:30.252Z,101324.59
2023-02-05T22:21:37.600Z,101347.25
2023-02-05T22:25:53.204Z,101339.25
2023-02-05T22:29:56.625Z,101344.53
2023-02-05T22:34:00.636Z,101332.59
2023-02-05T22:38:08.068Z,101331.97
2023-02-05T22:42:19.580Z,101349.97
2023-02-05T22:46:27.430Z,101345.91
2023-02-05T22:50:30.881Z,101365.81
2023-02-05T22:54:35.798Z,101372.88
2023-02-05T22:58:41.175Z,101367.94
2023-02-05T23:02:44.706Z,101343.13
2023-02-05T23:06:52.693Z,101368.69
2023-02-05T23:10:58.185Z,101373.09
2023-02-05T23:15:02.210Z,101344.94
2023-02-05T23:19:08.588Z,101370.38
2023-02-05T23:23:20.907Z,101379.28
2023-02-05T23:27:27.328Z,101375.63
2023-02-05T23:31:35.212Z,101381.31
2023-02-05T23:35:41.517Z,101380.47
2023-02-05T23:39:45.263Z,101374.78
2023-02-05T23:43:55.098Z,101369.72
2023-02-05T23:47:59.143Z,101381.06
2023-02-05T23:52:03.801Z,101383.53
2023-02-05T23:56:07.425Z,101376.88
